createdAt,value
2023-01-25T00:01:07.572Z,3.38
2023-01-25T00:03:34.538Z,3.36
2023-01-25T00:06:02.060Z,3.36
2023-01-25T00:08:28.922Z,3.37
2023-01-25T00:10:57.652Z,3.32
2023-01-25T00:13:25.268Z,3.30
2023-01-25T00:15:51.986Z,3.27
2023-01-25T00:18:18.764Z,3.31
2023-01-25T00:20:45.523Z,3.28
2023-01-25T00:23:12.244Z,3.25
2023-01-25T00:25:39.093Z,3.18
2023-01-25T00:28:05.964Z,3.18
2023-01-25T00:30:32.721Z,3.19
2023-01-25T00:33:16.586Z,3.14
2023-01-25T00:35:45.085Z,3.12
2023-01-25T00:38:35.118Z,3.08
2023-01-25T00:41:02.019Z,3.13
2023-01-25T00:43:28.805Z,3.14
2023-01-25T00:46:02.154Z,3.16
2023-01-25T00:48:30.149Z,3.17
2023-01-25T00:51:01.885Z,3.12
2023-01-25T00:53:28.907Z,3.15
2023-01-25T00:55:55.733Z,3.15
2023-01-25T00:58:22.477Z,3.17
2023-01-25T01:00:49.286Z,3.10
2023-01-25T01:03:16.804Z,3.04
2023-01-25T01:05:45.885Z,3.03
2023-01-25T01:08:14.406Z,3.05
2023-01-25T01:10:41.544Z,3.05
2023-01-25T01:13:09.026Z,3.05
2023-01-25T01:15:38.817Z,2.96
2023-01-25T01:18:05.650Z,2.97
2023-01-25T01:20:32.389Z,3.00
2023-01-25T01:22:59.316Z,3.00
2023-01-25T01:25:26.130Z,2.99
2023-01-25T01:27:52.905Z,2.96
2023-01-25T01:30:19.774Z,2.95
2023-01-25T01:32:46.692Z,2.98
2023-01-25T01:35:13.804Z,2.92
2023-01-25T01:37:43.303Z,2.91
2023-01-25T01:40:15.666Z,2.90
2023-01-25T01:43:03.477Z,2.89
2023-01-25T01:45:47.846Z,2.79
2023-01-25T01:48:57.420Z,2.74
2023-01-25T01:51:25.014Z,2.75
2023-01-25T01:54:08.660Z,2.65
2023-01-25T01:56:39.788Z,2.47
2023-01-25T01:59:07.836Z,2.62
2023-01-25T02:01:35.610Z,2.65
2023-01-25T02:04:06.239Z,2.64
2023-01-25T02:06:50.711Z,2.62
2023-01-25T02:09:21.470Z,2.63
2023-01-25T02:11:51.016Z,2.65
2023-01-25T02:14:18.867Z,2.71
2023-01-25T02:16:46.371Z,2.64
2023-01-25T02:19:30.723Z,2.56
2023-01-25T02:22:00.289Z,2.65
2023-01-25T02:24:33.198Z,2.57
2023-01-25T02:27:00.162Z,2.53
2023-01-25T02:29:29.545Z,2.55
2023-01-25T02:32:06.609Z,2.58
2023-01-25T02:34:33.495Z,2.58
2023-01-25T02:37:00.913Z,2.61
2023-01-25T02:39:28.377Z,2.64
2023-01-25T02:41:55.191Z,2.69
2023-01-25T02:44:28.123Z,2.66
2023-01-25T02:46:56.367Z,2.54
2023-01-25T02:49:23.514Z,2.60
2023-01-25T02:51:55.858Z,2.71
2023-01-25T02:54:23.577Z,2.60
2023-01-25T02:56:50.920Z,2.60
2023-01-25T02:59:19.192Z,2.57
2023-01-25T03:01:51.159Z,2.58
2023-01-25T03:04:18.208Z,2.63
2023-01-25T03:06:45.010Z,2.64
2023-01-25T03:09:12.911Z,2.68
2023-01-25T03:11:44.494Z,2.60
2023-01-25T03:14:11.596Z,2.56
2023-01-25T03:16:39.081Z,2.56
2023-01-25T03:19:06.527Z,2.64
2023-01-25T03:21:33.411Z,2.60
2023-01-25T03:24:01.666Z,2.63
2023-01-25T03:26:55.746Z,2.62
2023-01-25T03:29:27.717Z,2.61
2023-01-25T03:31:54.541Z,2.61
2023-01-25T03:34:21.552Z,2.63
2023-01-25T03:36:48.407Z,2.60
2023-01-25T03:39:16.003Z,2.58
2023-01-25T03:41:43.605Z,2.58
2023-01-25T03:44:12.870Z,2.52
2023-01-25T03:46:42.367Z,2.60
2023-01-25T03:49:09.836Z,2.50
2023-01-25T03:51:36.910Z,2.53
2023-01-25T03:54:04.687Z,2.54
2023-01-25T03:56:34.814Z,2.60
2023-01-25T03:59:08.285Z,2.56
2023-01-25T04:01:36.179Z,2.57
2023-01-25T04:04:03.393Z,2.57
2023-01-25T04:06:30.375Z,2.58
2023-01-25T04:08:57.674Z,2.62
2023-01-25T04:11:26.385Z,2.62
2023-01-25T04:13:53.761Z,2.62
2023-01-25T04:16:22.958Z,2.63
2023-01-25T04:19:12.652Z,2.59
2023-01-25T04:21:40.327Z,2.62
2023-01-25T04:24:08.004Z,2.54
2023-01-25T04:26:38.050Z,2.54
2023-01-25T04:29:06.181Z,2.49
2023-01-25T04:31:33.704Z,2.49
2023-01-25T04:34:01.258Z,2.40
2023-01-25T04:36:28.660Z,2.40
2023-01-25T04:38:55.913Z,2.41
2023-01-25T04:41:26.891Z,2.44
2023-01-25T04:43:54.751Z,2.43
2023-01-25T04:46:21.997Z,2.44
2023-01-25T04:48:51.265Z,2.44
2023-01-25T04:51:18.458Z,2.45
2023-01-25T04:53:45.628Z,2.47
2023-01-25T04:56:12.764Z,2.46
2023-01-25T04:58:53.653Z,2.43
2023-01-25T05:01:22.644Z,2.45
2023-01-25T05:03:51.203Z,2.43
2023-01-25T05:06:32.947Z,2.41
2023-01-25T05:08:59.773Z,2.38
2023-01-25T05:11:27.065Z,2.37
2023-01-25T05:14:04.618Z,2.35
2023-01-25T05:16:33.245Z,2.31
2023-01-25T05:19:00.848Z,2.29
2023-01-25T05:21:59.344Z,2.25
2023-01-25T05:24:41.694Z,2.21
2023-01-25T05:27:11.976Z,2.12
2023-01-25T05:29:59.077Z,2.11
2023-01-25T05:32:46.233Z,2.09
2023-01-25T05:35:13.916Z,2.12
2023-01-25T05:37:40.709Z,2.16
2023-01-25T05:40:14.380Z,2.20
2023-01-25T05:42:41.911Z,2.15
2023-01-25T05:45:15.892Z,2.11
2023-01-25T05:47:45.168Z,2.19
2023-01-25T05:50:12.136Z,2.20
2023-01-25T05:52:58.004Z,2.16
2023-01-25T05:55:24.857Z,2.20
2023-01-25T05:57:56.696Z,2.20
2023-01-25T06:00:24.116Z,2.22
2023-01-25T06:02:51.108Z,2.25
2023-01-25T06:05:22.566Z,2.28
2023-01-25T06:07:49.698Z,2.31
2023-01-25T06:10:18.263Z,2.31
2023-01-25T06:12:47.359Z,2.32
2023-01-25T06:15:14.261Z,2.35
2023-01-25T06:17:41.400Z,2.34
2023-01-25T06:20:09.008Z,2.37
2023-01-25T06:22:36.141Z,2.38
2023-01-25T06:25:02.944Z,2.39
2023-01-25T06:27:30.555Z,2.43
2023-01-25T06:29:57.282Z,2.38
2023-01-25T06:32:26.028Z,2.40
2023-01-25T06:34:53.327Z,2.39
2023-01-25T06:37:23.029Z,2.41
2023-01-25T06:39:50.274Z,2.41
2023-01-25T06:42:17.014Z,2.44
2023-01-25T06:44:43.787Z,2.48
2023-01-25T06:47:11.309Z,2.54
2023-01-25T06:49:38.258Z,2.56
2023-01-25T06:52:05.187Z,2.65
2023-01-25T06:54:31.970Z,2.73
2023-01-25T06:56:58.764Z,2.85
2023-01-25T06:59:25.508Z,3.01
2023-01-25T07:01:52.364Z,3.10
2023-01-25T07:04:19.111Z,3.28
2023-01-25T07:06:45.882Z,3.43
2023-01-25T07:09:14.720Z,3.54
2023-01-25T07:11:41.545Z,3.68
2023-01-25T07:14:08.277Z,3.71
2023-01-25T07:16:38.713Z,3.63
2023-01-25T07:19:06.647Z,3.61
2023-01-25T07:21:33.797Z,3.82
2023-01-25T07:24:02.539Z,4.03
2023-01-25T07:26:29.977Z,4.15
2023-01-25T07:28:57.852Z,4.36
2023-01-25T07:31:26.173Z,4.59
2023-01-25T07:33:54.926Z,4.37
2023-01-25T07:36:21.916Z,4.55
2023-01-25T07:38:49.003Z,4.47
2023-01-25T07:41:16.557Z,4.62
2023-01-25T07:43:43.591Z,4.58
2023-01-25T07:46:12.791Z,4.71
2023-01-25T07:48:40.925Z,5.00
2023-01-25T07:51:16.541Z,5.11
2023-01-25T07:53:44.122Z,5.20
2023-01-25T07:56:12.576Z,5.40
2023-01-25T07:58:40.189Z,5.47
2023-01-25T08:01:12.758Z,5.60
2023-01-25T08:03:39.515Z,5.81
2023-01-25T08:06:07.425Z,5.97
2023-01-25T08:08:36.664Z,6.01
2023-01-25T08:11:14.126Z,5.89
2023-01-25T08:13:41.832Z,6.04
2023-01-25T08:16:09.094Z,6.14
2023-01-25T08:18:36.794Z,6.17
2023-01-25T08:21:03.977Z,6.32
2023-01-25T08:23:30.777Z,6.44
2023-01-25T08:26:02.855Z,6.36
2023-01-25T08:28:29.597Z,6.58
2023-01-25T08:31:04.582Z,6.67
2023-01-25T08:33:32.062Z,6.66
2023-01-25T08:35:58.996Z,6.53
2023-01-25T08:38:26.050Z,6.63
2023-01-25T08:40:52.856Z,6.79
2023-01-25T08:43:19.920Z,6.88
2023-01-25T08:45:47.919Z,6.98
2023-01-25T08:48:16.668Z,6.97
2023-01-25T08:50:48.036Z,6.94
2023-01-25T08:53:15.054Z,7.05
2023-01-25T08:55:43.119Z,7.11
2023-01-25T08:58:12.430Z,6.94
2023-01-25T09:00:40.119Z,6.87
2023-01-25T09:03:08.321Z,6.65
2023-01-25T09:05:39.460Z,6.32
2023-01-25T09:08:10.298Z,6.14
2023-01-25T09:10:37.088Z,6.02
2023-01-25T09:13:03.897Z,5.92
2023-01-25T09:15:30.710Z,5.69
2023-01-25T09:17:58.214Z,5.49
2023-01-25T09:20:25.290Z,5.31
2023-01-25T09:22:56.149Z,5.25
2023-01-25T09:25:23.030Z,5.25
2023-01-25T09:27:51.347Z,5.20
2023-01-25T09:30:19.308Z,5.10
2023-01-25T09:32:51.352Z,4.99
2023-01-25T09:35:18.384Z,4.98
2023-01-25T09:37:45.357Z,4.89
2023-01-25T09:40:23.661Z,4.85
2023-01-25T09:43:03.364Z,4.81
2023-01-25T09:45:34.693Z,4.90
2023-01-25T09:48:06.598Z,4.94
2023-01-25T09:50:36.832Z,5.01
2023-01-25T09:53:38.607Z,4.96
2023-01-25T09:56:18.097Z,5.05
2023-01-25T09:58:48.760Z,5.11
2023-01-25T10:01:38.741Z,5.19
2023-01-25T10:04:22.608Z,5.31
2023-01-25T10:06:59.994Z,5.05
2023-01-25T10:09:33.241Z,5.38
2023-01-25T10:12:18.817Z,5.48
2023-01-25T10:14:45.653Z,5.63
2023-01-25T10:17:16.558Z,5.76
2023-01-25T10:20:30.260Z,5.71
2023-01-25T10:23:22.145Z,5.94
2023-01-25T10:25:59.467Z,6.05
2023-01-25T10:28:41.812Z,6.11
2023-01-25T10:31:19.623Z,6.45
2023-01-25T10:33:48.606Z,6.71
2023-01-25T10:36:20.539Z,6.90
2023-01-25T10:38:57.540Z,6.92
2023-01-25T10:41:36.487Z,6.80
2023-01-25T10:44:21.834Z,6.83
2023-01-25T10:47:27.658Z,6.60
2023-01-25T10:49:59.026Z,6.62
2023-01-25T10:52:27.311Z,6.53
2023-01-25T10:55:14.468Z,6.24
2023-01-25T10:57:48.057Z,6.18
2023-01-25T11:00:39.858Z,5.92
2023-01-25T11:03:19.267Z,5.90
2023-01-25T11:05:55.075Z,5.81
2023-01-25T11:08:25.721Z,5.66
2023-01-25T11:10:53.772Z,5.58
2023-01-25T11:13:24.645Z,5.63
2023-01-25T11:16:27.734Z,5.45
2023-01-25T11:18:56.774Z,5.77
2023-01-25T11:21:26.931Z,5.89
2023-01-25T11:24:09.322Z,5.94
2023-01-25T11:26:38.496Z,6.20
2023-01-25T11:29:17.626Z,6.30
2023-01-25T11:31:57.804Z,6.29
2023-01-25T11:34:29.375Z,6.42
2023-01-25T11:37:20.515Z,6.57
2023-01-25T11:40:15.941Z,6.55
2023-01-25T11:42:58.558Z,6.76
2023-01-25T11:45:30.968Z,6.83
2023-01-25T11:48:32.270Z,6.59
2023-01-25T11:51:08.956Z,6.28
2023-01-25T11:53:35.726Z,6.35
2023-01-25T11:56:23.670Z,6.38
2023-01-25T11:59:14.470Z,6.53
2023-01-25T12:02:08.585Z,6.52
2023-01-25T12:04:47.172Z,6.60
2023-01-25T12:07:41.148Z,6.70
2023-01-25T12:10:37.302Z,6.65
2023-01-25T12:13:39.425Z,6.58
2023-01-25T12:16:22.288Z,6.32
2023-01-25T12:19:07.844Z,6.21
2023-01-25T12:21:55.854Z,6.09
2023-01-25T12:24:33.396Z,5.90
2023-01-25T12:27:20.228Z,5.68
2023-01-25T12:29:52.554Z,5.85
2023-01-25T12:32:42.690Z,5.68
2023-01-25T12:35:27.515Z,5.78
2023-01-25T12:38:04.614Z,5.91
2023-01-25T12:40:43.046Z,6.01
2023-01-25T12:43:26.531Z,6.00
2023-01-25T12:45:55.636Z,5.94
2023-01-25T12:48:32.710Z,5.84
2023-01-25T12:51:00.553Z,5.87
2023-01-25T12:53:48.370Z,5.83
2023-01-25T12:56:44.099Z,5.78
2023-01-25T12:59:37.974Z,5.75
2023-01-25T13:02:27.882Z,5.41
2023-01-25T13:05:37.193Z,5.14
2023-01-25T13:08:23.171Z,5.10
2023-01-25T13:11:12.844Z,5.01
2023-01-25T13:13:40.085Z,4.99
2023-01-25T13:16:41.404Z,4.96
2023-01-25T13:19:38.335Z,5.05
2023-01-25T13:22:06.554Z,5.30
2023-01-25T13:24:35.549Z,5.43
2023-01-25T13:27:28.306Z,5.20
2023-01-25T13:30:19.396Z,5.26
2023-01-25T13:32:52.327Z,5.24
2023-01-25T13:35:32.813Z,5.32
2023-01-25T13:38:18.379Z,5.48
2023-01-25T13:40:45.234Z,5.44
2023-01-25T13:43:13.204Z,5.44
2023-01-25T13:45:42.239Z,5.56
2023-01-25T13:48:18.966Z,5.60
2023-01-25T13:50:59.272Z,5.64
2023-01-25T13:53:33.154Z,5.66
2023-01-25T13:56:00.373Z,5.41
2023-01-25T13:58:30.139Z,5.24
2023-01-25T14:00:56.974Z,5.19
2023-01-25T14:03:29.900Z,4.94
2023-01-25T14:05:59.356Z,4.84
2023-01-25T14:08:28.147Z,4.65
2023-01-25T14:10:56.297Z,4.43
2023-01-25T14:13:23.557Z,4.35
2023-01-25T14:15:58.710Z,4.32
2023-01-25T14:18:32.352Z,4.24
2023-01-25T14:21:21.060Z,4.26
2023-01-25T14:23:49.271Z,4.35
2023-01-25T14:26:25.169Z,4.39
2023-01-25T14:29:01.357Z,4.33
2023-01-25T14:31:34.309Z,4.38
2023-01-25T14:34:04.360Z,4.47
2023-01-25T14:36:34.265Z,4.41
2023-01-25T14:39:03.790Z,4.36
2023-01-25T14:41:36.134Z,4.44
2023-01-25T14:44:06.009Z,4.60
2023-01-25T14:46:37.384Z,4.74
2023-01-25T14:49:13.298Z,4.67
2023-01-25T14:51:48.462Z,4.66
2023-01-25T14:54:28.342Z,4.64
2023-01-25T14:57:06.855Z,4.63
2023-01-25T14:59:34.238Z,4.65
2023-01-25T15:02:23.092Z,4.53
2023-01-25T15:05:17.891Z,4.27
2023-01-25T15:07:50.664Z,4.16
2023-01-25T15:10:22.516Z,4.18
2023-01-25T15:13:11.679Z,4.28
2023-01-25T15:16:03.614Z,4.44
2023-01-25T15:18:46.058Z,4.58
2023-01-25T15:21:15.976Z,4.73
2023-01-25T15:23:46.015Z,4.77
2023-01-25T15:26:24.024Z,4.79
2023-01-25T15:28:53.572Z,4.86
2023-01-25T15:31:30.178Z,4.85
2023-01-25T15:33:58.908Z,4.90
2023-01-25T15:36:32.338Z,4.93
2023-01-25T15:39:00.075Z,4.92
2023-01-25T15:41:27.540Z,4.93
2023-01-25T15:43:54.730Z,4.92
2023-01-25T15:46:27.927Z,4.89
2023-01-25T15:48:55.205Z,4.84
2023-01-25T15:51:23.405Z,4.87
2023-01-25T15:53:50.338Z,4.89
2023-01-25T15:56:18.575Z,4.89
2023-01-25T15:58:50.399Z,4.88
2023-01-25T16:01:19.095Z,4.86
2023-01-25T16:03:46.034Z,4.87
2023-01-25T16:06:25.211Z,4.83
2023-01-25T16:08:52.267Z,4.94
2023-01-25T16:11:19.091Z,4.95
2023-01-25T16:13:45.991Z,4.95
2023-01-25T16:16:21.036Z,4.91
2023-01-25T16:18:51.264Z,4.83
2023-01-25T16:21:20.453Z,4.77
2023-01-25T16:23:47.415Z,4.82
2023-01-25T16:26:25.931Z,4.80
2023-01-25T16:28:53.188Z,4.88
2023-01-25T16:31:31.836Z,4.93
2023-01-25T16:34:00.371Z,4.91
2023-01-25T16:36:27.282Z,4.89
2023-01-25T16:38:54.155Z,4.84
2023-01-25T16:41:20.966Z,4.66
2023-01-25T16:43:49.232Z,4.52
2023-01-25T16:46:21.628Z,4.43
2023-01-25T16:48:51.061Z,4.44
2023-01-25T16:51:22.258Z,4.55
2023-01-25T16:53:50.977Z,4.62
2023-01-25T16:56:23.186Z,4.46
2023-01-25T16:58:50.941Z,4.43
2023-01-25T17:01:19.643Z,4.45
2023-01-25T17:03:47.166Z,4.47
2023-01-25T17:06:21.155Z,4.48
2023-01-25T17:08:48.826Z,4.59
2023-01-25T17:11:18.802Z,4.59
2023-01-25T17:13:53.483Z,4.52
2023-01-25T17:16:22.084Z,4.53
2023-01-25T17:18:53.478Z,4.59
2023-01-25T17:21:21.195Z,4.64
2023-01-25T17:23:48.524Z,4.67
2023-01-25T17:26:16.982Z,4.69
2023-01-25T17:28:44.366Z,4.71
2023-01-25T17:31:32.284Z,4.62
2023-01-25T17:34:10.916Z,4.67
2023-01-25T17:36:37.694Z,4.68
2023-01-25T17:39:06.781Z,4.70
2023-01-25T17:41:33.863Z,4.73
2023-01-25T17:44:00.619Z,4.72
2023-01-25T17:46:30.175Z,4.70
2023-01-25T17:48:59.193Z,4.69
2023-01-25T17:51:26.585Z,4.67
2023-01-25T17:53:54.170Z,4.65
2023-01-25T17:56:21.291Z,4.65
2023-01-25T17:58:48.508Z,4.67
2023-01-25T18:01:18.609Z,4.68
2023-01-25T18:03:46.954Z,4.67
2023-01-25T18:06:16.886Z,4.68
2023-01-25T18:08:48.304Z,4.66
2023-01-25T18:11:19.072Z,4.68
2023-01-25T18:13:52.481Z,4.69
2023-01-25T18:16:22.248Z,4.42
2023-01-25T18:18:50.650Z,4.68
2023-01-25T18:21:26.282Z,4.64
2023-01-25T18:24:16.263Z,4.59
2023-01-25T18:26:43.068Z,4.59
2023-01-25T18:29:09.854Z,4.61
2023-01-25T18:31:37.110Z,4.63
2023-01-25T18:34:04.162Z,4.64
2023-01-25T18:36:31.118Z,4.67
2023-01-25T18:39:01.527Z,4.69
2023-01-25T18:41:28.433Z,4.68
2023-01-25T18:43:56.772Z,4.65
2023-01-25T18:46:23.667Z,4.64
2023-01-25T18:48:51.235Z,4.62
2023-01-25T18:51:18.543Z,4.58
2023-01-25T18:53:47.794Z,4.53
2023-01-25T18:56:17.385Z,4.49
2023-01-25T18:58:44.458Z,4.53
2023-01-25T19:01:13.176Z,4.54
2023-01-25T19:03:40.103Z,4.57
2023-01-25T19:06:07.086Z,4.58
2023-01-25T19:08:35.654Z,4.63
2023-01-25T19:11:06.144Z,4.60
2023-01-25T19:13:40.062Z,4.54
2023-01-25T19:16:13.885Z,4.54
2023-01-25T19:18:46.411Z,4.45
2023-01-25T19:21:15.458Z,4.34
2023-01-25T19:23:42.783Z,4.32
2023-01-25T19:26:12.590Z,4.25
2023-01-25T19:28:39.770Z,4.24
2023-01-25T19:31:18.778Z,4.22
2023-01-25T19:33:46.004Z,4.21
2023-01-25T19:36:19.334Z,4.22
2023-01-25T19:38:46.878Z,3.92
2023-01-25T19:41:19.509Z,4.17
2023-01-25T19:43:46.646Z,4.19
2023-01-25T19:46:18.982Z,4.22
2023-01-25T19:48:49.839Z,4.29
2023-01-25T19:51:22.848Z,4.31
2023-01-25T19:53:59.014Z,4.29
2023-01-25T19:56:30.352Z,4.40
2023-01-25T19:58:57.584Z,4.42
2023-01-25T20:01:29.357Z,4.47
2023-01-25T20:04:00.685Z,4.42
2023-01-25T20:06:28.011Z,4.40
2023-01-25T20:08:55.115Z,4.40
2023-01-25T20:11:27.503Z,4.36
2023-01-25T20:13:57.142Z,4.36
2023-01-25T20:16:25.414Z,4.37
2023-01-25T20:18:52.238Z,4.38
2023-01-25T20:21:21.458Z,4.39
2023-01-25T20:23:51.581Z,4.38
2023-01-25T20:26:23.323Z,4.34
2023-01-25T20:28:52.515Z,4.29
2023-01-25T20:31:25.304Z,4.26
2023-01-25T20:33:54.489Z,4.26
2023-01-25T20:36:21.399Z,4.30
2023-01-25T20:38:48.631Z,4.31
2023-01-25T20:41:17.922Z,4.31
2023-01-25T20:43:49.129Z,4.35
2023-01-25T20:46:16.850Z,4.36
2023-01-25T20:48:44.441Z,4.37
2023-01-25T20:51:14.059Z,4.40
2023-01-25T20:53:42.249Z,4.37
2023-01-25T20:56:10.722Z,4.37
2023-01-25T20:58:37.915Z,4.41
2023-01-25T21:01:11.970Z,4.39
2023-01-25T21:03:38.740Z,4.39
2023-01-25T21:06:07.273Z,4.42
2023-01-25T21:08:34.087Z,4.41
2023-01-25T21:11:01.206Z,4.39
2023-01-25T21:13:29.436Z,4.38
2023-01-25T21:16:03.799Z,4.32
2023-01-25T21:18:52.067Z,4.25
2023-01-25T21:21:32.696Z,4.36
2023-01-25T21:24:02.531Z,4.36
2023-01-25T21:26:32.105Z,4.34
2023-01-25T21:29:00.755Z,4.35
2023-01-25T21:31:32.805Z,4.30
2023-01-25T21:34:00.617Z,4.30
2023-01-25T21:36:27.896Z,4.31
2023-01-25T21:38:56.561Z,4.23
2023-01-25T21:41:25.761Z,4.20
2023-01-25T21:44:12.866Z,4.19
2023-01-25T21:46:40.544Z,4.17
2023-01-25T21:49:28.127Z,4.16
2023-01-25T21:52:02.530Z,4.11
2023-01-25T21:54:39.503Z,4.04
2023-01-25T21:57:16.413Z,3.99
2023-01-25T21:59:43.272Z,4.01
2023-01-25T22:02:16.930Z,3.99
2023-01-25T22:04:45.240Z,4.06
2023-01-25T22:07:12.618Z,4.01
2023-01-25T22:09:39.573Z,4.01
2023-01-25T22:12:06.675Z,4.02
2023-01-25T22:14:33.579Z,4.06
2023-01-25T22:17:00.597Z,4.09
2023-01-25T22:19:27.439Z,4.09
2023-01-25T22:21:54.212Z,4.13
2023-01-25T22:24:22.174Z,4.07
2023-01-25T22:26:48.976Z,4.04
2023-01-25T22:29:16.192Z,3.94
2023-01-25T22:31:44.088Z,3.92
2023-01-25T22:34:11.225Z,3.86
2023-01-25T22:36:38.434Z,3.84
2023-01-25T22:39:05.492Z,3.79
2023-01-25T22:41:36.118Z,3.84
2023-01-25T22:44:02.992Z,3.95
2023-01-25T22:46:30.321Z,4.00
2023-01-25T22:48:58.866Z,3.84
2023-01-25T22:51:27.688Z,3.82
2023-01-25T22:53:55.839Z,3.90
2023-01-25T22:56:32.060Z,3.94
2023-01-25T22:58:59.371Z,4.01
2023-01-25T23:01:29.485Z,4.03
2023-01-25T23:03:57.207Z,4.08
2023-01-25T23:06:26.804Z,4.13
2023-01-25T23:09:03.324Z,4.21
2023-01-25T23:11:35.624Z,4.23
2023-01-25T23:14:25.513Z,4.21
2023-01-25T23:16:52.561Z,4.21
2023-01-25T23:19:19.467Z,4.25
2023-01-25T23:21:46.223Z,4.28
2023-01-25T23:24:13.168Z,4.30
2023-01-25T23:26:46.350Z,4.27
2023-01-25T23:29:13.547Z,3.94
2023-01-25T23:31:40.536Z,4.12
2023-01-25T23:34:08.015Z,4.12
2023-01-25T23:36:41.545Z,4.10
2023-01-25T23:39:11.221Z,4.09
2023-01-25T23:41:37.994Z,4.10
2023-01-25T23:44:05.017Z,4.08
2023-01-25T23:46:31.831Z,4.07
2023-01-25T23:48:58.629Z,4.07
2023-01-25T23:51:25.377Z,4.03
2023-01-25T23:53:53.548Z,4.01
2023-01-25T23:56:22.416Z,3.96
2023-01-25T23:58:49.762Z,3.94
